Time;durP1;ratioP1;P1;durP2;ratioP2;P2;SDS_P1;SDS_P2;PMS_P1;PMS_P2;Temp;Humidity;BMP_temperature;BMP_pressure;BME280_temperature;BME280_humidity;BME280_pressure;Samples;Min_cycle;Max_cycle;Signal;HPM_P1;HPM_P2
2021/06/07 00:01:06;;;;;;;21.92;12.75;;;;;;;;;;6220089;28;20050;-83
2021/06/07 00:04:08;;;;;;;17.88;12.00;;;;;;;;;;6241782;28;20057;-83
2021/06/07 00:07:12;;;;;;;19.40;12.73;;;;;;;;;;6217303;28;20049;-83
2021/06/07 00:10:16;;;;;;;18.85;12.32;;;;;;;;;;6266093;28;20049;-83
2021/06/07 00:13:18;;;;;;;19.70;11.73;;;;;;;;;;6258595;28;20387;-83
2021/06/07 00:16:20;;;;;;;18.95;12.13;;;;;;;;;;6227098;28;20041;-83
2021/06/07 00:19:23;;;;;;;18.48;12.02;;;;;;;;;;6251593;28;20047;-84
2021/06/07 00:22:25;;;;;;;18.15;11.63;;;;;;;;;;6268282;28;20045;-83
2021/06/07 00:25:27;;;;;;;18.27;11.85;;;;;;;;;;6233106;28;20042;-83
2021/06/07 00:28:29;;;;;;;22.05;12.95;;;;;;;;;;6219747;28;20173;-83
2021/06/07 00:31:30;;;;;;;18.63;12.73;;;;;;;;;;6235206;28;20037;-83
2021/06/07 00:34:33;;;;;;;20.07;13.53;;;;;;;;;;6236262;28;20041;-84
2021/06/07 00:37:34;;;;;;;23.80;14.30;;;;;;;;;;6244186;28;20041;-83
2021/06/07 00:40:36;;;;;;;23.20;13.93;;;;;;;;;;6242355;28;20388;-83
2021/06/07 00:43:38;;;;;;;20.60;13.35;;;;;;;;;;6243996;28;20113;-82
2021/06/07 00:46:40;;;;;;;22.30;13.93;;;;;;;;;;6245482;28;20050;-83
2021/06/07 00:49:42;;;;;;;22.65;13.93;;;;;;;;;;6241697;28;20129;-83
2021/06/07 00:53:02;;;;;;;20.95;13.23;;;;;;;;;;6242639;28;20047;-83
2021/06/07 00:56:08;;;;;;;20.88;12.70;;;;;;;;;;6214898;28;20054;-83
2021/06/07 00:59:10;;;;;;;19.98;13.45;;;;;;;;;;6211314;28;20046;-83
2021/06/07 01:02:12;;;;;;;22.02;13.48;;;;;;;;;;6201146;28;20054;-84
2021/06/07 01:05:14;;;;;;;22.55;13.82;;;;;;;;;;6194893;28;20047;-83
2021/06/07 01:08:16;;;;;;;18.85;13.05;;;;;;;;;;6210580;28;20042;-83
2021/06/07 01:11:17;;;;;;;19.45;12.70;;;;;;;;;;6194860;28;20081;-83
2021/06/07 01:14:19;;;;;;;18.90;13.30;;;;;;;;;;6194492;28;20057;-83
2021/06/07 01:17:20;;;;;;;20.73;12.85;;;;;;;;;;6211966;28;20521;-83
2021/06/07 01:20:24;;;;;;;20.98;13.32;;;;;;;;;;6228521;28;20057;-82
2021/06/07 01:23:25;;;;;;;19.90;12.50;;;;;;;;;;6235000;28;20041;-84
2021/06/07 01:26:27;;;;;;;18.13;11.77;;;;;;;;;;6196068;28;20125;-83
2021/06/07 01:29:29;;;;;;;17.08;11.75;;;;;;;;;;6194538;28;20419;-83
2021/06/07 01:32:31;;;;;;;18.63;12.68;;;;;;;;;;6215580;28;20037;-83
2021/06/07 01:35:33;;;;;;;20.85;13.32;;;;;;;;;;6267960;28;20106;-83
2021/06/07 01:38:34;;;;;;;21.58;12.50;;;;;;;;;;6248497;28;20136;-83
2021/06/07 01:41:36;;;;;;;20.10;12.00;;;;;;;;;;6244390;28;20097;-83
2021/06/07 01:44:38;;;;;;;17.25;11.40;;;;;;;;;;6243209;28;20049;-84
2021/06/07 01:47:39;;;;;;;17.35;11.90;;;;;;;;;;6257900;28;20051;-84
2021/06/07 01:50:42;;;;;;;16.83;10.88;;;;;;;;;;6214153;28;20096;-83
2021/06/07 01:53:46;;;;;;;15.75;11.00;;;;;;;;;;6217684;28;20045;-83
2021/06/07 01:56:48;;;;;;;16.30;11.38;;;;;;;;;;6251626;28;20540;-83
2021/06/07 01:59:49;;;;;;;16.17;11.45;;;;;;;;;;6218231;28;20045;-84
2021/06/07 02:02:51;;;;;;;17.83;11.90;;;;;;;;;;6221504;28;20042;-84
2021/06/07 02:05:57;;;;;;;19.83;11.48;;;;;;;;;;6242571;28;20425;-83
2021/06/07 02:08:59;;;;;;;17.27;10.73;;;;;;;;;;6242597;28;20780;-83
2021/06/07 02:12:01;;;;;;;17.40;11.85;;;;;;;;;;6226031;28;20116;-84
2021/06/07 02:15:05;;;;;;;19.27;11.73;;;;;;;;;;6244590;28;20038;-84
2021/06/07 02:18:09;;;;;;;19.83;12.48;;;;;;;;;;6220852;28;20064;-83
2021/06/07 02:21:12;;;;;;;18.67;12.70;;;;;;;;;;6210320;28;20512;-83
2021/06/07 02:24:14;;;;;;;18.65;11.85;;;;;;;;;;6238805;28;20502;-83
2021/06/07 02:27:15;;;;;;;21.15;13.13;;;;;;;;;;6241287;28;20049;-84
2021/06/07 02:30:27;;;;;;;19.10;12.80;;;;;;;;;;6241436;28;20406;-84
2021/06/07 02:33:28;;;;;;;20.50;12.70;;;;;;;;;;6228914;28;20041;-83
2021/06/07 02:36:34;;;;;;;19.67;11.88;;;;;;;;;;6221494;28;20137;-83
2021/06/07 02:39:38;;;;;;;18.63;11.85;;;;;;;;;;6229840;28;20052;-83
2021/06/07 02:42:41;;;;;;;18.13;11.80;;;;;;;;;;6245314;28;20090;-83
2021/06/07 02:45:43;;;;;;;19.27;11.35;;;;;;;;;;6245611;28;20499;-83
2021/06/07 02:48:45;;;;;;;17.00;11.10;;;;;;;;;;6248174;28;20045;-83
2021/06/07 02:51:47;;;;;;;17.27;11.20;;;;;;;;;;6230984;28;20164;-83
2021/06/07 02:54:48;;;;;;;18.15;12.07;;;;;;;;;;6248915;28;20041;-83
2021/06/07 02:57:51;;;;;;;15.35;10.68;;;;;;;;;;6239861;28;20045;-82
2021/06/07 03:00:55;;;;;;;;;;;;;;;;;;6264088;28;20119;-83
2021/06/07 03:03:56;;;;;;;16.90;11.38;;;;;;;;;;6248247;28;19921;-83
2021/06/07 03:06:58;;;;;;;16.00;9.98;;;;;;;;;;6245681;28;20059;-83
2021/06/07 03:10:00;;;;;;;15.82;10.25;;;;;;;;;;6234935;28;20030;-83
2021/06/07 03:13:01;;;;;;;15.40;10.52;;;;;;;;;;6224015;28;20044;-83
2021/06/07 03:16:05;;;;;;;15.48;9.73;;;;;;;;;;6223066;28;20044;-83
2021/06/07 03:19:06;;;;;;;15.35;9.63;;;;;;;;;;6239659;28;20172;-84
2021/06/07 03:22:08;;;;;;;13.98;9.75;;;;;;;;;;6209688;28;20057;-84
2021/06/07 03:25:10;;;;;;;12.52;8.30;;;;;;;;;;6236422;28;20047;-84
2021/06/07 03:28:13;;;;;;;11.13;8.27;;;;;;;;;;6247924;28;20629;-83
2021/06/07 03:31:15;;;;;;;12.95;9.43;;;;;;;;;;6230470;28;20446;-82
2021/06/07 03:34:17;;;;;;;12.60;8.48;;;;;;;;;;6223705;28;20053;-82
2021/06/07 03:37:18;;;;;;;11.60;8.73;;;;;;;;;;6219535;28;20491;-83
2021/06/07 03:40:27;;;;;;;13.75;9.40;;;;;;;;;;6234786;28;20047;-83
2021/06/07 03:43:32;;;;;;;14.20;9.50;;;;;;;;;;6239701;28;20176;-82
2021/06/07 03:46:33;;;;;;;13.43;8.95;;;;;;;;;;6234369;28;20046;-83
2021/06/07 03:49:35;;;;;;;12.77;8.68;;;;;;;;;;6228366;28;20147;-83
2021/06/07 03:52:37;;;;;;;11.70;8.48;;;;;;;;;;6240913;28;20037;-82
2021/06/07 03:55:40;;;;;;;11.48;8.73;;;;;;;;;;6215555;28;20458;-83
2021/06/07 03:58:42;;;;;;;11.07;8.60;;;;;;;;;;6217766;28;20045;-82
2021/06/07 04:01:43;;;;;;;11.68;8.35;;;;;;;;;;6217658;28;20053;-84
2021/06/07 04:04:45;;;;;;;12.00;8.70;;;;;;;;;;6257352;28;20052;-83
2021/06/07 04:07:48;;;;;;;10.73;8.25;;;;;;;;;;6257469;28;20113;-83
2021/06/07 04:10:49;;;;;;;14.10;8.45;;;;;;;;;;6258624;28;20068;-83
2021/06/07 04:13:51;;;;;;;9.88;7.43;;;;;;;;;;6267399;28;20502;-83
2021/06/07 04:16:53;;;;;;;9.48;7.35;;;;;;;;;;6235632;28;20581;-82
2021/06/07 04:19:55;;;;;;;12.23;8.45;;;;;;;;;;6241882;28;20068;-83
2021/06/07 04:22:57;;;;;;;10.48;8.48;;;;;;;;;;6241040;28;20052;-82
2021/06/07 04:25:59;;;;;;;11.85;8.38;;;;;;;;;;6240523;28;20099;-84
2021/06/07 04:29:01;;;;;;;12.07;7.95;;;;;;;;;;6241926;28;20038;-83
2021/06/07 04:32:03;;;;;;;12.60;8.45;;;;;;;;;;6241769;28;20052;-82
2021/06/07 04:35:07;;;;;;;10.32;7.85;;;;;;;;;;6239793;28;20037;-83
2021/06/07 04:38:09;;;;;;;9.95;7.00;;;;;;;;;;6241919;28;20128;-83
2021/06/07 04:41:12;;;;;;;9.55;7.32;;;;;;;;;;6203251;28;20068;-83
2021/06/07 04:44:13;;;;;;;9.05;6.75;;;;;;;;;;6218287;28;20056;-82
2021/06/07 04:47:15;;;;;;;10.07;7.53;;;;;;;;;;6232283;28;20071;-83
2021/06/07 04:50:18;;;;;;;11.70;6.95;;;;;;;;;;6253260;28;20055;-83
2021/06/07 04:53:20;;;;;;;10.20;7.43;;;;;;;;;;6265047;28;20425;-82
2021/06/07 04:56:22;;;;;;;9.88;7.32;;;;;;;;;;6265397;28;20048;-84
2021/06/07 04:59:23;;;;;;;9.25;6.97;;;;;;;;;;6268180;28;20045;-83
2021/06/07 05:02:25;;;;;;;11.25;7.22;;;;;;;;;;6242968;28;20513;-83
2021/06/07 05:05:27;;;;;;;8.70;7.13;;;;;;;;;;6223558;28;20041;-83
2021/06/07 05:08:30;;;;;;;10.65;7.80;;;;;;;;;;6245908;28;20478;-83
2021/06/07 05:11:32;;;;;;;10.07;7.78;;;;;;;;;;6226066;28;20104;-83
2021/06/07 05:14:33;;;;;;;13.13;7.77;;;;;;;;;;6244323;28;20560;-83
2021/06/07 05:17:35;;;;;;;10.27;7.63;;;;;;;;;;6226250;28;20417;-84
2021/06/07 05:20:38;;;;;;;8.68;6.97;;;;;;;;;;6242392;28;20050;-84
2021/06/07 05:23:39;;;;;;;9.68;7.03;;;;;;;;;;6245592;28;20041;-83
2021/06/07 05:26:41;;;;;;;11.18;8.07;;;;;;;;;;6245909;28;20037;-83
2021/06/07 05:29:44;;;;;;;10.15;7.43;;;;;;;;;;6239510;28;20048;-83
2021/06/07 05:32:46;;;;;;;11.40;7.90;;;;;;;;;;6238279;28;20401;-83
2021/06/07 05:35:50;;;;;;;10.75;7.72;;;;;;;;;;6234670;28;20034;-83
2021/06/07 05:38:52;;;;;;;10.35;7.70;;;;;;;;;;6242287;28;20038;-83
2021/06/07 05:41:54;;;;;;;11.10;7.73;;;;;;;;;;6236815;28;20079;-83
2021/06/07 05:44:58;;;;;;;12.48;8.27;;;;;;;;;;6228577;28;20042;-83
2021/06/07 05:48:00;;;;;;;11.23;7.93;;;;;;;;;;6214737;28;20121;-82
2021/06/07 05:51:02;;;;;;;12.05;8.10;;;;;;;;;;6210330;28;20061;-83
2021/06/07 05:54:04;;;;;;;9.80;7.93;;;;;;;;;;6223954;28;20049;-83
2021/06/07 05:57:07;;;;;;;11.88;8.10;;;;;;;;;;6217801;28;20048;-84
2021/06/07 06:00:09;;;;;;;13.60;8.13;;;;;;;;;;6233760;28;20121;-83
2021/06/07 06:03:11;;;;;;;10.90;7.63;;;;;;;;;;6226717;28;20103;-84
2021/06/07 06:06:13;;;;;;;8.77;6.75;;;;;;;;;;6243566;28;20049;-83
2021/06/07 06:09:15;;;;;;;11.98;7.97;;;;;;;;;;6222507;28;20537;-83
2021/06/07 06:12:16;;;;;;;13.43;9.07;;;;;;;;;;6240939;28;20132;-82
2021/06/07 06:15:21;;;;;;;11.73;8.52;;;;;;;;;;6228843;28;20053;-82
2021/06/07 06:18:23;;;;;;;9.75;7.20;;;;;;;;;;6214548;28;20046;-81
2021/06/07 06:21:26;;;;;;;10.80;7.47;;;;;;;;;;6216455;28;20041;-81
2021/06/07 06:24:27;;;;;;;12.18;8.32;;;;;;;;;;6235496;28;20045;-81
2021/06/07 06:27:29;;;;;;;10.07;7.82;;;;;;;;;;6238917;28;20051;-81
2021/06/07 06:30:31;;;;;;;10.80;7.60;;;;;;;;;;6238018;28;20041;-81
2021/06/07 06:33:34;;;;;;;9.10;7.40;;;;;;;;;;6237404;28;20045;-82
2021/06/07 06:36:36;;;;;;;9.85;7.15;;;;;;;;;;6221133;28;20049;-81
2021/06/07 06:39:38;;;;;;;9.18;6.57;;;;;;;;;;6219511;28;20112;-81
2021/06/07 06:42:39;;;;;;;9.45;6.85;;;;;;;;;;6239842;28;20048;-81
2021/06/07 06:45:41;;;;;;;8.73;6.97;;;;;;;;;;6240763;28;20048;-82
2021/06/07 06:48:42;;;;;;;9.93;7.03;;;;;;;;;;6237816;28;20152;-82
2021/06/07 06:51:44;;;;;;;9.32;6.53;;;;;;;;;;6244844;28;20042;-82
2021/06/07 06:54:46;;;;;;;8.15;7.00;;;;;;;;;;6209538;28;20125;-83
2021/06/07 06:57:47;;;;;;;10.02;7.03;;;;;;;;;;6194229;28;20050;-82
2021/06/07 07:00:50;;;;;;;11.13;6.57;;;;;;;;;;6194311;28;20106;-83
2021/06/07 07:03:52;;;;;;;6.82;5.47;;;;;;;;;;6224885;28;20041;-82
2021/06/07 07:06:53;;;;;;;8.07;5.80;;;;;;;;;;6244907;28;20149;-82
2021/06/07 07:09:56;;;;;;;7.57;6.00;;;;;;;;;;6207141;28;20491;-82
2021/06/07 07:12:57;;;;;;;7.93;6.15;;;;;;;;;;6201570;28;20052;-83
2021/06/07 07:15:59;;;;;;;8.47;6.67;;;;;;;;;;6214832;28;20050;-82
2021/06/07 07:19:02;;;;;;;6.93;6.22;;;;;;;;;;6209715;28;20097;-83
2021/06/07 07:22:04;;;;;;;7.75;6.07;;;;;;;;;;6211879;28;20045;-83
2021/06/07 07:25:07;;;;;;;8.60;6.35;;;;;;;;;;6200201;28;20095;-83
2021/06/07 07:28:09;;;;;;;8.70;6.82;;;;;;;;;;6204145;28;20061;-83
2021/06/07 07:31:11;;;;;;;7.17;6.10;;;;;;;;;;6237394;28;20056;-83
2021/06/07 07:34:12;;;;;;;8.00;6.97;;;;;;;;;;6242908;28;21092;-83
2021/06/07 07:37:14;;;;;;;8.18;6.97;;;;;;;;;;6245215;28;20054;-83
2021/06/07 07:40:18;;;;;;;9.13;7.43;;;;;;;;;;6244017;28;20056;-83
2021/06/07 07:43:20;;;;;;;8.75;7.05;;;;;;;;;;6244323;28;20056;-82
2021/06/07 07:46:22;;;;;;;8.77;7.10;;;;;;;;;;6215101;28;20042;-82
2021/06/07 07:49:23;;;;;;;9.95;7.88;;;;;;;;;;6227129;28;20057;-83
2021/06/07 07:52:25;;;;;;;9.57;7.43;;;;;;;;;;6223224;28;20052;-81
2021/06/07 07:55:31;;;;;;;10.18;7.32;;;;;;;;;;6215576;28;20511;-81
2021/06/07 07:58:33;;;;;;;9.65;7.63;;;;;;;;;;6243926;28;20518;-81
2021/06/07 08:01:36;;;;;;;13.48;7.43;;;;;;;;;;6240276;28;20049;-81
2021/06/07 08:04:38;;;;;;;10.00;7.73;;;;;;;;;;6244074;28;20040;-81
2021/06/07 08:07:40;;;;;;;9.73;7.65;;;;;;;;;;6244943;28;20175;-80
2021/06/07 08:10:41;;;;;;;11.10;8.57;;;;;;;;;;6212762;28;20097;-80
2021/06/07 08:13:43;;;;;;;11.18;8.57;;;;;;;;;;6200326;28;20116;-80
2021/06/07 08:16:45;;;;;;;13.85;9.50;;;;;;;;;;6202478;28;20038;-80
2021/06/07 08:19:46;;;;;;;11.45;8.10;;;;;;;;;;6207546;28;20042;-81
2021/06/07 08:22:51;;;;;;;15.98;9.00;;;;;;;;;;6205596;28;20132;-81
2021/06/07 08:25:52;;;;;;;13.73;9.02;;;;;;;;;;6211182;28;20049;-81
2021/06/07 08:28:54;;;;;;;11.82;8.75;;;;;;;;;;6197010;28;20098;-82
2021/06/07 08:31:55;;;;;;;13.02;8.65;;;;;;;;;;6201097;28;20045;-81
2021/06/07 08:34:57;;;;;;;11.48;8.80;;;;;;;;;;6256754;28;20044;-83
2021/06/07 08:37:59;;;;;;;11.88;8.32;;;;;;;;;;6220372;28;20150;-81
2021/06/07 08:41:02;;;;;;;13.07;9.53;;;;;;;;;;6192965;28;20046;-82
2021/06/07 08:44:04;;;;;;;11.85;8.30;;;;;;;;;;6196247;28;20041;-82
2021/06/07 08:47:06;;;;;;;10.63;8.38;;;;;;;;;;6207409;28;20527;-82
2021/06/07 08:50:09;;;;;;;11.48;8.13;;;;;;;;;;6264112;28;20041;-82
2021/06/07 08:53:12;;;;;;;11.48;7.55;;;;;;;;;;6244522;28;20131;-82
2021/06/07 08:56:15;;;;;;;11.27;8.52;;;;;;;;;;6196548;28;20042;-82
2021/06/07 08:59:17;;;;;;;11.30;8.52;;;;;;;;;;6195314;28;20074;-82
2021/06/07 09:02:34;;;;;;;12.27;8.02;;;;;;;;;;6184091;28;20110;-82
2021/06/07 09:05:37;;;;;;;12.20;8.32;;;;;;;;;;6216513;28;20046;-82
2021/06/07 09:08:39;;;;;;;11.77;7.93;;;;;;;;;;6217332;28;20088;-82
2021/06/07 09:11:47;;;;;;;11.77;8.40;;;;;;;;;;6176026;28;20130;-82
2021/06/07 09:14:49;;;;;;;10.07;7.63;;;;;;;;;;6194525;28;20588;-82
2021/06/07 09:17:51;;;;;;;10.15;8.05;;;;;;;;;;6218615;28;20116;-83
2021/06/07 09:21:06;;;;;;;14.13;8.38;;;;;;;;;;6241240;28;20131;-83
2021/06/07 09:24:08;;;;;;;12.00;8.73;;;;;;;;;;6240010;28;20046;-83
2021/06/07 09:27:10;;;;;;;11.85;8.35;;;;;;;;;;6242913;28;20528;-83
2021/06/07 09:30:36;;;;;;;11.27;8.75;;;;;;;;;;6240031;28;20052;-83
2021/06/07 09:33:40;;;;;;;10.50;8.38;;;;;;;;;;6240103;28;20049;-83
2021/06/07 09:36:43;;;;;;;10.30;8.57;;;;;;;;;;6224569;28;20441;-82
2021/06/07 09:39:45;;;;;;;12.10;8.93;;;;;;;;;;6230143;28;20042;-81
2021/06/07 09:43:06;;;;;;;12.93;8.68;;;;;;;;;;6216367;28;20038;-82
2021/06/07 09:46:08;;;;;;;12.05;8.63;;;;;;;;;;6215402;28;20101;-82
2021/06/07 09:49:16;;;;;;;12.52;8.25;;;;;;;;;;6252276;28;20049;-82
2021/06/07 09:52:21;;;;;;;13.15;9.63;;;;;;;;;;6240080;28;20129;-82
2021/06/07 09:55:24;;;;;;;10.57;8.68;;;;;;;;;;6238555;28;20286;-81
2021/06/07 09:58:31;;;;;;;10.80;8.73;;;;;;;;;;6242272;28;20056;-80
2021/06/07 10:01:43;;;;;;;11.30;8.73;;;;;;;;;;6266246;28;20116;-81
2021/06/07 10:04:54;;;;;;;11.75;8.13;;;;;;;;;;6268555;28;20414;-81
2021/06/07 10:07:55;;;;;;;10.88;8.85;;;;;;;;;;6274286;28;20052;-80
2021/06/07 10:10:57;;;;;;;10.68;8.43;;;;;;;;;;6280744;28;20057;-80
2021/06/07 10:14:18;;;;;;;10.13;7.88;;;;;;;;;;6282220;28;20067;-81
2021/06/07 10:17:20;;;;;;;10.68;7.85;;;;;;;;;;6254416;28;20530;-80
2021/06/07 10:23:29;;;;;;;10.05;8.00;;;;;;;;;;6269645;28;20112;-81
2021/06/07 10:26:30;;;;;;;9.63;8.00;;;;;;;;;;6267354;28;20140;-81
2021/06/07 10:29:34;;;;;;;10.07;8.68;;;;;;;;;;6271047;28;20570;-80
2021/06/07 10:32:36;;;;;;;11.30;8.93;;;;;;;;;;6269989;28;20100;-81
2021/06/07 10:35:42;;;;;;;12.05;8.75;;;;;;;;;;6268648;28;20045;-80
2021/06/07 10:38:43;;;;;;;11.02;8.98;;;;;;;;;;6270526;28;20048;-80
2021/06/07 10:41:50;;;;;;;11.40;8.27;;;;;;;;;;6232571;28;20045;-80
2021/06/07 10:44:54;;;;;;;10.45;8.27;;;;;;;;;;6214524;28;20048;-81
2021/06/07 10:47:56;;;;;;;10.82;8.77;;;;;;;;;;6229949;28;20128;-82
2021/06/07 10:51:08;;;;;;;12.57;8.85;;;;;;;;;;6246337;28;20081;-82
2021/06/07 10:54:28;;;;;;;10.27;8.70;;;;;;;;;;6219429;28;20200;-82
2021/06/07 10:57:30;;;;;;;11.23;9.05;;;;;;;;;;6229464;28;20042;-83
2021/06/07 11:00:44;;;;;;;9.55;8.27;;;;;;;;;;6233041;28;20060;-83
2021/06/07 11:03:57;;;;;;;10.30;7.95;;;;;;;;;;6207686;28;20042;-82
2021/06/07 11:07:12;;;;;;;10.43;8.48;;;;;;;;;;6210781;28;20082;-82
2021/06/07 11:10:26;;;;;;;9.05;7.72;;;;;;;;;;6228855;28;20102;-81
2021/06/07 11:13:48;;;;;;;8.48;7.60;;;;;;;;;;6243066;28;20055;-82
2021/06/07 11:16:50;;;;;;;9.02;7.85;;;;;;;;;;6228816;28;20042;-82
2021/06/07 11:19:52;;;;;;;10.07;8.35;;;;;;;;;;6218443;28;20038;-82
2021/06/07 11:23:14;;;;;;;9.45;7.80;;;;;;;;;;6193311;28;20524;-82
2021/06/07 11:26:33;;;;;;;9.35;7.45;;;;;;;;;;6216765;28;20053;-82
2021/06/07 11:29:35;;;;;;;10.13;8.25;;;;;;;;;;6218205;28;20294;-82
2021/06/07 11:32:39;;;;;;;8.77;7.50;;;;;;;;;;6216334;28;20124;-82
2021/06/07 11:35:43;;;;;;;10.65;8.30;;;;;;;;;;6217700;28;20049;-82
2021/06/07 11:38:59;;;;;;;8.57;7.68;;;;;;;;;;6217225;28;20129;-82
2021/06/07 11:42:04;;;;;;;9.05;7.00;;;;;;;;;;6225804;28;20071;-82
2021/06/07 11:45:38;;;;;;;9.73;7.72;;;;;;;;;;6243762;28;20056;-82
2021/06/07 11:49:05;;;;;;;13.25;9.20;;;;;;;;;;6196525;28;20049;-82
2021/06/07 11:52:10;;;;;;;11.95;9.13;;;;;;;;;;6240383;28;20514;-82
2021/06/07 11:55:26;;;;;;;10.90;8.70;;;;;;;;;;6229506;28;20404;-82
2021/06/07 11:58:29;;;;;;;9.65;8.55;;;;;;;;;;6217445;28;20052;-82
2021/06/07 12:01:33;;;;;;;9.30;8.13;;;;;;;;;;6216315;28;20045;-82
2021/06/07 12:04:35;;;;;;;9.85;8.57;;;;;;;;;;6195615;28;20045;-83
2021/06/07 12:07:43;;;;;;;9.40;8.20;;;;;;;;;;6232259;28;20041;-82
2021/06/07 12:10:51;;;;;;;10.27;9.18;;;;;;;;;;6223817;28;20050;-83
2021/06/07 12:13:52;;;;;;;12.45;9.88;;;;;;;;;;6238974;28;20045;-81
2021/06/07 12:17:00;;;;;;;11.10;9.70;;;;;;;;;;6212391;28;20048;-81
2021/06/07 12:20:06;;;;;;;10.48;9.27;;;;;;;;;;6243631;28;20065;-82
2021/06/07 12:23:07;;;;;;;10.43;9.32;;;;;;;;;;6245104;28;20045;-81
2021/06/07 12:29:41;;;;;;;11.02;9.30;;;;;;;;;;6219068;28;20041;-81
2021/06/07 12:32:43;;;;;;;11.45;8.82;;;;;;;;;;6220550;28;20239;-82
2021/06/07 12:35:45;;;;;;;10.37;9.13;;;;;;;;;;6221856;28;20120;-80
2021/06/07 12:38:47;;;;;;;11.48;9.35;;;;;;;;;;6221919;28;20471;-82
2021/06/07 12:41:49;;;;;;;10.90;9.70;;;;;;;;;;6199252;28;20125;-81
2021/06/07 12:44:50;;;;;;;11.68;9.02;;;;;;;;;;6214640;28;20546;-81
2021/06/07 12:47:52;;;;;;;9.85;8.60;;;;;;;;;;6218412;28;20117;-81
2021/06/07 12:51:00;;;;;;;9.60;8.50;;;;;;;;;;6222753;28;20543;-82
2021/06/07 12:54:02;;;;;;;12.35;8.77;;;;;;;;;;6223590;28;20054;-82
2021/06/07 12:57:04;;;;;;;11.27;8.75;;;;;;;;;;6247959;28;20120;-82
2021/06/07 13:00:25;;;;;;;10.20;8.45;;;;;;;;;;6269586;28;20127;-82
2021/06/07 13:03:29;;;;;;;10.65;9.32;;;;;;;;;;6237450;28;20045;-81
2021/06/07 13:06:43;;;;;;;10.40;9.30;;;;;;;;;;6220263;28;20623;-82
2021/06/07 13:09:46;;;;;;;;;;;;;;;;;;6227351;28;20071;-81
2021/06/07 13:12:55;;;;;;;11.32;8.65;;;;;;;;;;6243706;28;19991;-81
2021/06/07 13:15:59;;;;;;;12.60;9.95;;;;;;;;;;6239355;28;20480;-82
2021/06/07 13:19:06;;;;;;;10.68;9.57;;;;;;;;;;6222212;28;20096;-82
2021/06/07 13:22:10;;;;;;;11.70;9.43;;;;;;;;;;6219539;28;20038;-81
2021/06/07 13:25:17;;;;;;;12.18;9.55;;;;;;;;;;6222612;28;20133;-81
2021/06/07 13:28:19;;;;;;;11.02;8.63;;;;;;;;;;6210920;28;20054;-81
2021/06/07 13:31:21;;;;;;;12.00;9.38;;;;;;;;;;6209878;28;20077;-81
2021/06/07 13:34:28;;;;;;;12.35;9.25;;;;;;;;;;6228481;28;20053;-81
2021/06/07 13:37:56;;;;;;;11.68;9.43;;;;;;;;;;6221020;28;20554;-81
2021/06/07 13:41:13;;;;;;;11.45;9.65;;;;;;;;;;6211989;28;20046;-81
2021/06/07 13:44:14;;;;;;;10.98;9.80;;;;;;;;;;6213940;28;20128;-81
2021/06/07 13:47:22;;;;;;;10.77;9.45;;;;;;;;;;6213402;28;20515;-81
2021/06/07 13:50:52;;;;;;;10.13;8.57;;;;;;;;;;6213688;28;20041;-80
2021/06/07 13:54:04;;;;;;;10.45;9.15;;;;;;;;;;6216805;28;20125;-81
2021/06/07 13:57:08;;;;;;;12.70;10.52;;;;;;;;;;6233861;28;20053;-81
2021/06/07 14:00:10;;;;;;;12.05;9.98;;;;;;;;;;6200053;28;20065;-81
2021/06/07 14:03:20;;;;;;;14.18;9.80;;;;;;;;;;6210797;28;20100;-80
2021/06/07 14:06:23;;;;;;;11.60;9.68;;;;;;;;;;6212956;28;20049;-81
2021/06/07 14:09:29;;;;;;;10.80;9.50;;;;;;;;;;6212511;28;20495;-80
2021/06/07 14:12:31;;;;;;;10.50;9.35;;;;;;;;;;6214731;28;20243;-81
2021/06/07 14:15:33;;;;;;;10.35;9.07;;;;;;;;;;6207159;28;20479;-80
2021/06/07 14:18:36;;;;;;;10.70;9.00;;;;;;;;;;6211605;28;20042;-80
2021/06/07 14:25:08;;;;;;;10.27;8.20;;;;;;;;;;6214095;28;19943;-81
2021/06/07 14:28:14;;;;;;;10.05;8.68;;;;;;;;;;6234755;28;20083;-80
2021/06/07 14:31:17;;;;;;;10.93;8.23;;;;;;;;;;6237332;28;20815;-80
2021/06/07 14:34:19;;;;;;;8.75;7.80;;;;;;;;;;6251957;28;20044;-80
2021/06/07 14:37:21;;;;;;;8.20;7.32;;;;;;;;;;6263409;28;20051;-81
2021/06/07 14:40:23;;;;;;;9.52;7.32;;;;;;;;;;6260863;28;20044;-80
2021/06/07 14:43:25;;;;;;;11.48;7.45;;;;;;;;;;6254820;28;20120;-81
2021/06/07 14:46:26;;;;;;;10.02;7.90;;;;;;;;;;6240231;28;20041;-81
2021/06/07 14:49:28;;;;;;;8.38;7.47;;;;;;;;;;6255292;28;20049;-81
2021/06/07 14:52:30;;;;;;;9.35;6.72;;;;;;;;;;6241430;28;20044;-80
2021/06/07 14:55:31;;;;;;;8.15;7.15;;;;;;;;;;6235901;28;20041;-80
2021/06/07 14:58:33;;;;;;;9.93;7.00;;;;;;;;;;6244350;28;20040;-81
2021/06/07 15:01:35;;;;;;;10.10;6.95;;;;;;;;;;6244295;28;20067;-80
2021/06/07 15:04:37;;;;;;;7.53;6.73;;;;;;;;;;6241127;28;20124;-81
2021/06/07 15:07:40;;;;;;;8.38;6.72;;;;;;;;;;6243013;28;20042;-81
2021/06/07 15:10:41;;;;;;;;;;;;;;;;;;6195536;28;84082;-81
2021/06/07 15:13:43;;;;;;;10.30;7.03;;;;;;;;;;6195296;28;20399;-80
2021/06/07 15:16:44;;;;;;;12.50;7.30;;;;;;;;;;6173792;28;21215;-80
2021/06/07 15:19:47;;;;;;;8.48;7.20;;;;;;;;;;6217892;28;20123;-80
2021/06/07 15:22:49;;;;;;;10.50;7.13;;;;;;;;;;6218212;28;20037;-81
2021/06/07 15:25:53;;;;;;;10.18;7.45;;;;;;;;;;6250175;28;20041;-82
2021/06/07 15:28:54;;;;;;;10.90;7.53;;;;;;;;;;6241823;28;20064;-81
2021/06/07 15:31:56;;;;;;;9.40;7.50;;;;;;;;;;6223907;28;20167;-80
2021/06/07 15:35:33;;;;;;;7.97;7.07;;;;;;;;;;6218627;28;20477;-81
2021/06/07 15:38:37;;;;;;;9.02;7.40;;;;;;;;;;6215161;28;20082;-80
2021/06/07 15:41:40;;;;;;;8.90;7.15;;;;;;;;;;6208855;28;20122;-81
2021/06/07 15:44:42;;;;;;;8.80;7.70;;;;;;;;;;6212429;28;20044;-81
2021/06/07 15:47:47;;;;;;;8.48;7.57;;;;;;;;;;6241082;28;20048;-81
2021/06/07 15:50:49;;;;;;;12.15;8.50;;;;;;;;;;6251810;28;20126;-80
2021/06/07 15:53:52;;;;;;;9.15;7.70;;;;;;;;;;6241647;28;20043;-81
2021/06/07 15:56:53;;;;;;;12.85;7.85;;;;;;;;;;6246644;28;20045;-81
2021/06/07 15:59:55;;;;;;;8.93;8.02;;;;;;;;;;6267385;28;20073;-82
2021/06/07 16:02:57;;;;;;;8.70;7.80;;;;;;;;;;6279842;28;20051;-81
2021/06/07 16:05:59;;;;;;;8.60;7.10;;;;;;;;;;6266377;28;20605;-81
2021/06/07 16:09:01;;;;;;;8.75;7.43;;;;;;;;;;6229508;28;22727;-79
2021/06/07 16:12:03;;;;;;;8.68;6.93;;;;;;;;;;6235661;28;20037;-80
2021/06/07 16:15:07;;;;;;;8.97;7.50;;;;;;;;;;6230838;28;20052;-81
2021/06/07 16:21:18;;;;;;;10.90;7.43;;;;;;;;;;6230019;28;20053;-80
2021/06/07 16:24:20;;;;;;;9.90;7.57;;;;;;;;;;6247396;28;20041;-80
2021/06/07 16:27:21;;;;;;;9.18;8.10;;;;;;;;;;6239849;28;20607;-80
2021/06/07 16:30:23;;;;;;;12.18;7.88;;;;;;;;;;6240830;28;20495;-80
2021/06/07 16:33:25;;;;;;;8.93;8.03;;;;;;;;;;6226835;28;20049;-81
2021/06/07 16:36:28;;;;;;;10.10;7.97;;;;;;;;;;6232933;28;20524;-81
2021/06/07 16:39:32;;;;;;;9.20;8.00;;;;;;;;;;6240729;28;20166;-80
2021/06/07 16:42:46;;;;;;;8.90;8.00;;;;;;;;;;6260227;28;20781;-82
2021/06/07 16:45:48;;;;;;;11.07;8.23;;;;;;;;;;6258947;28;20048;-81
2021/06/07 16:48:49;;;;;;;12.00;8.53;;;;;;;;;;6234670;28;20132;-81
2021/06/07 16:51:54;;;;;;;10.07;8.02;;;;;;;;;;6236900;28;20124;-81
2021/06/07 16:54:56;;;;;;;10.00;8.50;;;;;;;;;;6236290;28;20071;-80
2021/06/07 16:57:58;;;;;;;9.98;8.68;;;;;;;;;;6237805;28;20094;-82
2021/06/07 17:00:59;;;;;;;10.70;8.45;;;;;;;;;;6237239;28;20052;-80
2021/06/07 17:04:01;;;;;;;9.38;8.45;;;;;;;;;;6221671;28;20068;-81
2021/06/07 17:07:03;;;;;;;9.65;7.70;;;;;;;;;;6260751;28;20041;-79
2021/06/07 17:10:06;;;;;;;11.80;8.50;;;;;;;;;;6231999;28;20042;-79
2021/06/07 17:13:11;;;;;;;11.70;8.40;;;;;;;;;;6238404;28;20645;-80
2021/06/07 17:16:13;;;;;;;11.15;8.18;;;;;;;;;;6233618;28;20121;-80
2021/06/07 17:19:15;;;;;;;11.82;8.10;;;;;;;;;;6252783;28;21033;-80
2021/06/07 17:22:16;;;;;;;9.30;8.30;;;;;;;;;;6239561;28;20132;-80
2021/06/07 17:25:19;;;;;;;12.90;8.75;;;;;;;;;;6237209;28;20077;-80
2021/06/07 17:28:21;;;;;;;11.27;8.38;;;;;;;;;;6239647;28;20494;-80
2021/06/07 17:31:23;;;;;;;11.40;8.32;;;;;;;;;;6210713;28;20056;-80
2021/06/07 17:34:24;;;;;;;11.73;8.27;;;;;;;;;;6204656;28;20054;-82
2021/06/07 17:37:26;;;;;;;10.13;8.43;;;;;;;;;;6215812;28;20042;-81
2021/06/07 17:40:28;;;;;;;9.57;8.40;;;;;;;;;;6214717;28;20169;-82
2021/06/07 17:43:30;;;;;;;11.02;8.25;;;;;;;;;;6212281;28;20199;-82
2021/06/07 17:46:40;;;;;;;9.88;8.35;;;;;;;;;;6226807;28;20052;-83
2021/06/07 17:49:42;;;;;;;15.75;9.82;;;;;;;;;;6206093;28;20048;-82
2021/06/07 17:52:46;;;;;;;10.77;8.57;;;;;;;;;;6210786;28;20125;-82
2021/06/07 17:55:49;;;;;;;10.60;8.48;;;;;;;;;;6233460;28;20048;-81
2021/06/07 17:58:51;;;;;;;11.52;8.63;;;;;;;;;;6239813;28;20041;-82
2021/06/07 18:01:53;;;;;;;14.68;9.05;;;;;;;;;;6222810;28;20042;-81
2021/06/07 18:04:54;;;;;;;11.63;9.48;;;;;;;;;;6229477;28;20053;-83
2021/06/07 18:07:59;;;;;;;10.70;8.73;;;;;;;;;;6214775;28;20073;-83
2021/06/07 18:11:01;;;;;;;11.07;8.80;;;;;;;;;;6216507;28;20042;-83
2021/06/07 18:14:03;;;;;;;12.23;9.13;;;;;;;;;;6212633;28;20053;-83
2021/06/07 18:17:05;;;;;;;12.68;9.73;;;;;;;;;;6215812;28;20052;-83
2021/06/07 18:20:07;;;;;;;21.35;17.95;;;;;;;;;;6215658;28;20038;-83